Time;durP1;ratioP1;P1;durP2;ratioP2;P2;SDS_P1;SDS_P2;PMS_P1;PMS_P2;Temp;Humidity;BMP_temperature;BMP_pressure;BME280_temperature;BME280_humidity;BME280_pressure;Samples;Min_cycle;Max_cycle;Signal;HPM_P1;HPM_P2
2022/09/27 00:58:52;;;;;;;;;;;;;;;;;;2299341;53;1683;-78
2022/09/27 01:01:25;;;;;;;;;;;;;;;;;;2210220;59;1122;-77
2022/09/27 01:04:02;;;;;;;;;;;;;;;;;;2210401;67;1196;-76
2022/09/27 01:06:35;;;;;;;;;;;;;;;;;;2210568;67;1938;-77
2022/09/27 01:09:09;;;;;;;;;;;;;;;;;;2211721;59;1329;-75
2022/09/27 01:22:27;;;;;;;;;;;;;;;;;;2279521;53;1856;-71
2022/09/27 01:25:11;;;;;;;;;;;;;;;;;;2214654;66;1232;-71
2022/09/27 01:27:57;;;;;;;;;;;;;;;;;;2212723;59;1983;-71
2022/09/27 01:30:34;;;;;;;;;;;;;;;;;;2215623;66;1164;-71
2022/09/27 01:33:14;;;;;;;;;;;;;;;;;;2216999;66;1308;-71
2022/09/27 01:35:54;;;;;;;;;;;;;;;;;;2216875;59;1127;-71
2022/09/27 01:38:31;;;;;;;;;;;;;;;;;;2218634;59;1248;-71
2022/09/27 01:41:07;;;;;;;;;;;;;;;;;;2217330;59;1375;-71
2022/09/27 01:43:46;;;;;;;;;;;;;;;;;;2215114;66;1544;-71
2022/09/27 01:46:25;;;;;;;;;;;;;;;;;;2217614;59;1998;-70
2022/09/27 01:49:00;;;;;;;;;;;;;;;;;;2217193;59;1216;-71
2022/09/27 01:51:37;;;;;;;;;;;;;;;;;;2217297;66;1288;-71
2022/09/27 01:54:14;;;;;;;;;;;;;;;;;;2214218;66;1226;-71
2022/09/27 01:56:50;;;;;;;;;;;;;;;;;;2217703;66;1088;-70
2022/09/27 01:59:28;;;;;;;;;;;;;;;;;;2213802;66;2000;-71
2022/09/27 02:02:06;;;;;;;;;;;;;;;;;;2216193;59;1299;-71
2022/09/27 02:04:41;;;;;;;;;;;;;;;;;;2213911;66;1224;-70
2022/09/27 02:07:18;;;;;;;;;;;;;;;;;;2217856;59;1978;-70
2022/09/27 02:09:53;;;;;;;;;;;;;;;;;;2217513;66;1216;-71
2022/09/27 02:12:29;;;;;;;;;;;;;;;;;;2217800;66;1220;-70
2022/09/27 02:15:06;;;;;;;;;;;;;;;;;;2214426;59;1788;-70
2022/09/27 02:17:46;;;;;;;;;;;;;;;;;;2214797;66;1171;-70
2022/09/27 02:20:23;;;;;;;;;;;;;;;;;;2215294;66;1269;-71
2022/09/27 02:22:59;;;;;;;;;;;;;;;;;;2216130;59;1213;-70
2022/09/27 02:25:36;;;;;;;;;;;;;;;;;;2217119;59;1443;-71
2022/09/27 02:28:15;;;;;;;;;;;;;;;;;;2218144;66;1929;-71
2022/09/27 02:30:48;;;;;;;;;;;;;;;;;;2218077;59;1243;-70
2022/09/27 02:33:26;;;;;;;;;;;;;;;;;;2218083;66;1246;-71
2022/09/27 02:35:59;;;;;;;;;;;;;;;;;;2217772;59;1153;-70
2022/09/27 02:38:32;;;;;;;;;;;;;;;;;;2218227;66;1179;-70
2022/09/27 02:41:06;;;;;;;;;;;;;;;;;;2217935;66;1303;-70
2022/09/27 02:43:39;;;;;;;;;;;;;;;;;;2217151;58;1127;-70
2022/09/27 02:46:20;;;;;;;;;;;;;;;;;;2215317;59;1288;-70
2022/09/27 02:49:03;;;;;;;;;;;;;;;;;;2214052;59;1951;-70
2022/09/27 02:51:44;;;;;;;;;;;;;;;;;;2217492;66;1119;-70
2022/09/27 02:54:21;;;;;;;;;;;;;;;;;;2218573;66;1226;-69
2022/09/27 02:57:02;;;;;;;;;;;;;;;;;;2218442;66;1259;-71
2022/09/27 02:59:41;;;;;;;;;;;;;;;;;;2217187;66;1306;-70
2022/09/27 03:02:16;;;;;;;;;;;;;;;;;;2218350;59;1278;-71
2022/09/27 03:04:55;;;;;;;;;;;;;;;;;;2218166;66;1243;-70
2022/09/27 03:07:29;;;;;;;;;;;;;;;;;;2218317;59;1925;-70
2022/09/27 03:10:02;;;;;;;;;;;;;;;;;;2218190;66;1183;-70
2022/09/27 03:12:35;;;;;;;;;;;;;;;;;;2218965;59;1208;-70
2022/09/27 03:15:09;;;;;;;;;;;;;;;;;;2218399;59;1258;-70
2022/09/27 03:17:42;;;;;;;;;;;;;;;;;;2218784;59;1166;-70
2022/09/27 03:20:19;;;;;;;;;;;;;;;;;;2215483;66;1397;-71
2022/09/27 03:22:53;;;;;;;;;;;;;;;;;;2217088;58;1229;-70
2022/09/27 03:25:26;;;;;;;;;;;;;;;;;;2217641;60;1100;-71
2022/09/27 03:27:59;;;;;;;;;;;;;;;;;;2217666;66;1927;-71
2022/09/27 03:30:33;;;;;;;;;;;;;;;;;;2218217;66;1124;-71
2022/09/27 03:33:08;;;;;;;;;;;;;;;;;;2217623;66;1195;-71
2022/09/27 03:35:44;;;;;;;;;;;;;;;;;;2218147;59;1112;-70
2022/09/27 03:38:17;;;;;;;;;;;;;;;;;;2218915;59;1212;-70
2022/09/27 03:40:50;;;;;;;;;;;;;;;;;;2218497;66;1264;-71
2022/09/27 03:43:23;;;;;;;;;;;;;;;;;;2217817;66;1078;-71
2022/09/27 03:45:56;;;;;;;;;;;;;;;;;;2217628;59;1236;-70
2022/09/27 03:48:29;;;;;;;;;;;;;;;;;;2218051;66;1943;-70
2022/09/27 03:51:06;;;;;;;;;;;;;;;;;;2213533;66;1289;-71
2022/09/27 03:53:39;;;;;;;;;;;;;;;;;;2218118;66;1270;-71
2022/09/27 03:56:12;;;;;;;;;;;;;;;;;;2217748;59;1193;-71
2022/09/27 03:58:45;;;;;;;;;;;;;;;;;;2217306;59;1455;-71
2022/09/27 04:01:18;;;;;;;;;;;;;;;;;;2218935;66;1234;-71
2022/09/27 04:03:52;;;;;;;;;;;;;;;;;;2215235;66;1246;-71
2022/09/27 04:06:30;;;;;;;;;;;;;;;;;;2222946;66;1116;-71
2022/09/27 04:09:04;;;;;;;;;;;;;;;;;;2220980;66;1932;-71
2022/09/27 04:11:37;;;;;;;;;;;;;;;;;;2221990;66;1305;-72
2022/09/27 04:14:11;;;;;;;;;;;;;;;;;;2222744;59;1253;-70
2022/09/27 04:16:45;;;;;;;;;;;;;;;;;;2221471;59;1170;-73
2022/09/27 04:19:18;;;;;;;;;;;;;;;;;;2218841;59;1235;-71
2022/09/27 04:21:54;;;;;;;;;;;;;;;;;;2222893;59;1237;-72
2022/09/27 04:24:27;;;;;;;;;;;;;;;;;;2222881;66;1160;-71
2022/09/27 04:27:00;;;;;;;;;;;;;;;;;;2222349;59;1128;-71
2022/09/27 04:29:34;;;;;;;;;;;;;;;;;;2219209;66;1969;-71
2022/09/27 04:32:07;;;;;;;;;;;;;;;;;;2219651;66;1250;-72
2022/09/27 04:37:32;;;;;;;;;;;;;;;;;;2214439;59;1416;-71
2022/09/27 04:40:05;;;;;;;;;;;;;;;;;;2218841;66;1369;-71
2022/09/27 04:42:43;;;;;;;;;;;;;;;;;;2218820;66;1321;-74
2022/09/27 04:45:19;;;;;;;;;;;;;;;;;;2218173;66;1271;-72
2022/09/27 04:47:52;;;;;;;;;;;;;;;;;;2218133;59;1933;-71
2022/09/27 04:50:26;;;;;;;;;;;;;;;;;;2218918;59;1071;-71
2022/09/27 04:53:02;;;;;;;;;;;;;;;;;;2217909;59;1310;-73
2022/09/27 04:55:37;;;;;;;;;;;;;;;;;;2218339;66;1082;-71
2022/09/27 04:58:10;;;;;;;;;;;;;;;;;;2218644;59;1269;-71
2022/09/27 05:00:44;;;;;;;;;;;;;;;;;;2218989;59;1222;-71
2022/09/27 05:03:17;;;;;;;;;;;;;;;;;;2218559;66;1106;-72
2022/09/27 05:05:51;;;;;;;;;;;;;;;;;;2218954;66;1113;-71
2022/09/27 05:08:27;;;;;;;;;;;;;;;;;;2219367;59;1984;-70
2022/09/27 05:11:00;;;;;;;;;;;;;;;;;;2217930;66;1248;-71
2022/09/27 05:13:34;;;;;;;;;;;;;;;;;;2220435;66;1283;-71
2022/09/27 05:16:07;;;;;;;;;;;;;;;;;;2219652;59;1117;-71
2022/09/27 05:18:41;;;;;;;;;;;;;;;;;;2220035;59;1150;-71
2022/09/27 05:21:14;;;;;;;;;;;;;;;;;;2219362;59;1299;-71
2022/09/27 05:23:50;;;;;;;;;;;;;;;;;;2220259;66;1083;-72
2022/09/27 05:26:23;;;;;;;;;;;;;;;;;;2221239;59;1115;-72
2022/09/27 05:28:56;;;;;;;;;;;;;;;;;;2221060;58;1974;-72
2022/09/27 05:31:29;;;;;;;;;;;;;;;;;;2220565;66;1287;-71
2022/09/27 05:34:02;;;;;;;;;;;;;;;;;;2217222;66;1281;-71
2022/09/27 05:36:36;;;;;;;;;;;;;;;;;;2219816;59;1130;-71
2022/09/27 05:39:12;;;;;;;;;;;;;;;;;;2218118;59;1291;-72
2022/09/27 05:41:45;;;;;;;;;;;;;;;;;;2218968;59;1222;-71
2022/09/27 05:44:18;;;;;;;;;;;;;;;;;;2219374;66;1246;-71
2022/09/27 05:46:51;;;;;;;;;;;;;;;;;;2218529;59;1303;-71
2022/09/27 05:49:25;;;;;;;;;;;;;;;;;;2219736;66;1916;-71
2022/09/27 05:51:58;;;;;;;;;;;;;;;;;;2218052;66;1281;-71
2022/09/27 05:54:34;;;;;;;;;;;;;;;;;;2218371;59;1077;-71
2022/09/27 05:57:07;;;;;;;;;;;;;;;;;;2218918;66;1194;-71
2022/09/27 05:59:41;;;;;;;;;;;;;;;;;;2218711;59;1103;-70
2022/09/27 06:02:14;;;;;;;;;;;;;;;;;;2215901;66;1562;-72
2022/09/27 06:04:47;;;;;;;;;;;;;;;;;;2219524;66;1268;-72
2022/09/27 06:07:20;;;;;;;;;;;;;;;;;;2218777;66;1276;-71
2022/09/27 06:09:56;;;;;;;;;;;;;;;;;;2218898;66;1933;-71
2022/09/27 06:12:29;;;;;;;;;;;;;;;;;;2218160;66;1265;-71
2022/09/27 06:15:03;;;;;;;;;;;;;;;;;;2218288;66;1255;-70
2022/09/27 06:17:36;;;;;;;;;;;;;;;;;;2218483;59;1111;-72
2022/09/27 06:20:09;;;;;;;;;;;;;;;;;;2218028;59;1484;-71
2022/09/27 06:22:44;;;;;;;;;;;;;;;;;;2218982;58;1198;-72
2022/09/27 06:25:21;;;;;;;;;;;;;;;;;;2214924;59;1785;-72
2022/09/27 06:27:55;;;;;;;;;;;;;;;;;;2215798;59;1121;-72
2022/09/27 06:30:28;;;;;;;;;;;;;;;;;;2217502;59;1122;-71
2022/09/27 06:33:02;;;;;;;;;;;;;;;;;;2220744;66;1259;-71
2022/09/27 06:35:37;;;;;;;;;;;;;;;;;;2218057;59;1108;-71
2022/09/27 06:38:12;;;;;;;;;;;;;;;;;;2221476;59;1129;-71
2022/09/27 06:40:47;;;;;;;;;;;;;;;;;;2221157;59;1579;-71
2022/09/27 06:43:21;;;;;;;;;;;;;;;;;;2221045;66;1252;-71
2022/09/27 06:45:54;;;;;;;;;;;;;;;;;;2220375;59;1470;-71
2022/09/27 06:48:28;;;;;;;;;;;;;;;;;;2216643;59;1979;-71
2022/09/27 06:51:02;;;;;;;;;;;;;;;;;;2217482;59;1646;-71
2022/09/27 06:53:35;;;;;;;;;;;;;;;;;;2216687;59;1732;-71
2022/09/27 06:56:11;;;;;;;;;;;;;;;;;;2218475;59;1767;-70
2022/09/27 07:01:33;;;;;;;;;;;;;;;;;;2218376;66;1285;-70
2022/09/27 07:04:06;;;;;;;;;;;;;;;;;;2219144;66;1139;-70
2022/09/27 07:06:39;;;;;;;;;;;;;;;;;;2217530;59;1662;-70
2022/09/27 07:09:13;;;;;;;;;;;;;;;;;;2217304;59;1949;-70
2022/09/27 07:11:49;;;;;;;;;;;;;;;;;;2218353;66;1206;-70
2022/09/27 07:14:22;;;;;;;;;;;;;;;;;;2218026;58;1212;-70
2022/09/27 07:16:55;;;;;;;;;;;;;;;;;;2214821;59;1170;-70
2022/09/27 07:19:28;;;;;;;;;;;;;;;;;;2216732;66;1276;-70
2022/09/27 08:31:25;;;;;;;;;;;;;;;;;;2401177;53;2049;-73
2022/09/27 08:33:58;;;;;;;;;;;;;;;;;;2215946;53;3644;-74
2022/09/27 08:36:34;;;;;;;;;;;;;;;;;;2215576;58;1653;-75
2022/09/27 08:39:07;;;;;;;;;;;;;;;;;;2216629;58;1805;-74
2022/09/27 08:41:43;;;;;;;;;;;;;;;;;;2216243;59;2124;-76
2022/09/27 08:44:22;;;;;;;;;;;;;;;;;;2217483;59;1439;-74
2022/09/27 08:47:03;;;;;;;;;;;;;;;;;;2214953;66;1139;-74
2022/09/27 09:59:01;;;;;;;;;;;;;;;;;;2318776;53;2092;-70
2022/09/27 10:01:36;;;;;;;;;;;;;;;;;;2215087;58;1542;-71
2022/09/27 10:04:11;;;;;;;;;;;;;;;;;;2215841;58;1740;-70
2022/09/27 10:06:44;;;;;;;;;;;;;;;;;;2214842;58;1733;-70
2022/09/27 10:09:19;;;;;;;;;;;;;;;;;;2214702;59;1985;-70
2022/09/27 11:02:58;;;;;;;;;;;;;;;;;;2380714;53;2026;-73
2022/09/27 11:05:32;;;;;;;;;;;;;;;;;;2211176;59;2626;-73
2022/09/27 11:08:25;;;;;;;;;;;;;;;;;;2212090;59;2227;-73
2022/09/27 11:11:03;;;;;;;;;;;;;;;;;;2212570;59;2162;-72
2022/09/27 11:13:36;;;;;;;;;;;;;;;;;;2208808;59;1616;-73
2022/09/27 11:36:26;;;;;;;;;;;;;;;;;;2209724;59;1198;-68
2022/09/27 11:39:07;;;;;;;;;;;;;;;;;;2207058;67;1267;-69
2022/09/27 11:42:08;;;;;;;;;;;;;;;;;;2204549;59;1787;-68
2022/09/27 11:47:51;;;;;;;;;;;;;;;;;;2221484;53;3639;-73
2022/09/27 11:50:46;;;;;;;;;;;;;;;;;;2211683;59;1925;-73
2022/09/27 11:53:26;;;;;;;;;;;;;;;;;;2212334;67;1230;-74
2022/09/27 11:56:08;;;;;;;;;;;;;;;;;;2212107;59;1785;-74
2022/09/27 11:58:47;;;;;;;;;;;;;;;;;;2215901;66;2037;-73
2022/09/27 12:01:32;;;;;;;;;;;;;;;;;;2211357;67;2002;-73
2022/09/27 12:04:28;;;;;;;;;;;;;;;;;;2216576;66;1155;-72
2022/09/27 12:07:07;;;;;;;;;;;;;;;;;;2210263;59;2829;-72
2022/09/27 12:09:42;;;;;;;;;;;;;;;;;;2207309;59;2251;-74
2022/09/27 12:12:20;;;;;;;;;;;;;;;;;;2211297;59;1688;-74
2022/09/27 12:14:56;;;;;;;;;;;;;;;;;;2212293;66;1068;-73
2022/09/27 12:17:31;;;;;;;;;;;;;;;;;;2210765;59;1217;-73
2022/09/27 12:20:05;;;;;;;;;;;;;;;;;;2212028;59;2339;-73
2022/09/27 12:22:42;;;;;;;;;;;;;;;;;;2210670;58;2166;-74
2022/09/27 12:25:16;;;;;;;;;;;;;;;;;;2208899;58;2130;-72
2022/09/27 12:27:54;;;;;;;;;;;;;;;;;;2209696;58;2435;-74
2022/09/27 12:30:28;;;;;;;;;;;;;;;;;;2208189;59;1980;-74
2022/09/27 12:33:06;;;;;;;;;;;;;;;;;;2211091;59;1735;-73
2022/09/27 12:35:43;;;;;;;;;;;;;;;;;;2212054;59;1803;-75
2022/09/27 12:38:17;;;;;;;;;;;;;;;;;;2211749;59;2950;-74
2022/09/27 12:40:53;;;;;;;;;;;;;;;;;;2214032;59;1813;-74
2022/09/27 12:43:30;;;;;;;;;;;;;;;;;;2215581;59;2214;-73
2022/09/27 12:46:08;;;;;;;;;;;;;;;;;;2209869;58;1998;-74
2022/09/27 12:48:47;;;;;;;;;;;;;;;;;;2213784;58;2311;-74
2022/09/27 12:51:22;;;;;;;;;;;;;;;;;;2211382;59;1988;-75
2022/09/27 12:54:04;;;;;;;;;;;;;;;;;;2212161;59;1806;-75
2022/09/27 12:56:45;;;;;;;;;;;;;;;;;;2210343;59;2142;-74
2022/09/27 12:59:27;;;;;;;;;;;;;;;;;;2213225;59;2224;-75
2022/09/27 13:02:19;;;;;;;;;;;;;;;;;;2213428;58;3115;-74
2022/09/27 13:05:09;;;;;;;;;;;;;;;;;;2215244;59;2175;-75
2022/09/27 13:07:47;;;;;;;;;;;;;;;;;;2213862;58;2477;-75
2022/09/27 13:10:28;;;;;;;;;;;;;;;;;;2212660;59;2460;-75
2022/09/27 13:13:03;;;;;;;;;;;;;;;;;;2212926;58;2210;-74
2022/09/27 13:15:39;;;;;;;;;;;;;;;;;;2213595;66;1070;-74
2022/09/27 13:18:30;;;;;;;;;;;;;;;;;;2214847;59;1938;-75
2022/09/27 13:21:04;;;;;;;;;;;;;;;;;;2211240;58;2823;-73
2022/09/27 13:24:01;;;;;;;;;;;;;;;;;;2213141;58;2363;-74
2022/09/27 13:26:48;;;;;;;;;;;;;;;;;;2212551;66;2570;-72
2022/09/27 13:29:23;;;;;;;;;;;;;;;;;;2210020;59;2297;-75
2022/09/27 13:32:13;;;;;;;;;;;;;;;;;;2211092;58;2347;-75
2022/09/27 13:34:49;;;;;;;;;;;;;;;;;;2213409;59;2422;-75
2022/09/27 13:37:47;;;;;;;;;;;;;;;;;;2214496;59;1222;-74
2022/09/27 13:40:33;;;;;;;;;;;;;;;;;;2214861;58;2185;-74
2022/09/27 13:43:24;;;;;;;;;;;;;;;;;;2214186;59;2213;-75
2022/09/27 13:45:58;;;;;;;;;;;;;;;;;;2214696;58;2251;-74
2022/09/27 13:48:42;;;;;;;;;;;;;;;;;;2213957;59;2339;-75
2022/09/27 13:51:19;;;;;;;;;;;;;;;;;;2212672;59;2197;-76
2022/09/27 13:54:00;;;;;;;;;;;;;;;;;;2215087;66;1117;-73
2022/09/27 13:56:48;;;;;;;;;;;;;;;;;;2213951;59;2336;-75
2022/09/27 13:59:33;;;;;;;;;;;;;;;;;;2214368;58;2305;-74
2022/09/27 14:02:14;;;;;;;;;;;;;;;;;;2212627;58;2633;-75
2022/09/27 14:04:52;;;;;;;;;;;;;;;;;;2212880;58;2294;-74
2022/09/27 14:07:27;;;;;;;;;;;;;;;;;;2211898;59;2734;-72
2022/09/27 14:10:01;;;;;;;;;;;;;;;;;;2211471;58;2625;-75
2022/09/27 14:12:35;;;;;;;;;;;;;;;;;;2212873;58;2150;-73
2022/09/27 14:15:09;;;;;;;;;;;;;;;;;;2216372;59;1253;-74
2022/09/27 14:17:44;;;;;;;;;;;;;;;;;;2215589;59;2142;-75
2022/09/27 14:20:38;;;;;;;;;;;;;;;;;;2215069;58;2819;-75
2022/09/27 14:23:17;;;;;;;;;;;;;;;;;;2216318;59;2398;-75
2022/09/27 14:25:52;;;;;;;;;;;;;;;;;;2215523;59;1806;-75
2022/09/27 14:28:26;;;;;;;;;;;;;;;;;;2211539;59;2651;-74
2022/09/27 14:31:09;;;;;;;;;;;;;;;;;;2212450;59;2589;-74
2022/09/27 14:33:42;;;;;;;;;;;;;;;;;;2215429;59;2361;-75
2022/09/27 14:39:16;;;;;;;;;;;;;;;;;;2214020;58;2255;-75
2022/09/27 14:41:49;;;;;;;;;;;;;;;;;;2213654;58;2428;-74
2022/09/27 14:44:22;;;;;;;;;;;;;;;;;;2214730;58;3116;-74
2022/09/27 14:47:13;;;;;;;;;;;;;;;;;;2211355;59;1997;-72
2022/09/27 14:49:51;;;;;;;;;;;;;;;;;;2209052;58;2423;-73
2022/09/27 14:52:30;;;;;;;;;;;;;;;;;;2212831;58;2458;-74
2022/09/27 14:55:04;;;;;;;;;;;;;;;;;;2214680;58;2773;-75
2022/09/27 14:57:40;;;;;;;;;;;;;;;;;;2213983;58;2050;-73
2022/09/27 15:00:19;;;;;;;;;;;;;;;;;;2210201;59;2254;-72
2022/09/27 15:02:54;;;;;;;;;;;;;;;;;;2217717;58;2661;-73
2022/09/27 15:05:29;;;;;;;;;;;;;;;;;;2215035;59;1833;-73
2022/09/27 15:08:07;;;;;;;;;;;;;;;;;;2214317;59;2841;-73
2022/09/27 15:10:40;;;;;;;;;;;;;;;;;;2212404;58;2277;-74
2022/09/27 15:13:17;;;;;;;;;;;;;;;;;;2214202;59;2717;-74
2022/09/27 15:15:51;;;;;;;;;;;;;;;;;;2216690;59;1334;-72
2022/09/27 15:18:32;;;;;;;;;;;;;;;;;;2210654;59;1624;-74
2022/09/27 15:21:06;;;;;;;;;;;;;;;;;;2211943;58;3006;-74
2022/09/27 15:23:43;;;;;;;;;;;;;;;;;;2214860;59;2165;-72
2022/09/27 15:26:19;;;;;;;;;;;;;;;;;;2214841;58;2064;-74
2022/09/27 15:28:53;;;;;;;;;;;;;;;;;;2214212;59;2301;-75
2022/09/27 15:31:30;;;;;;;;;;;;;;;;;;2213631;58;2284;-74
2022/09/27 15:34:05;;;;;;;;;;;;;;;;;;2210131;66;1403;-72
2022/09/27 15:36:59;;;;;;;;;;;;;;;;;;2213460;59;2399;-72
2022/09/27 15:39:35;;;;;;;;;;;;;;;;;;2213874;58;2074;-74
2022/09/27 15:42:11;;;;;;;;;;;;;;;;;;2214787;59;2136;-75
2022/09/27 15:44:49;;;;;;;;;;;;;;;;;;2215091;58;2529;-74
2022/09/27 15:47:37;;;;;;;;;;;;;;;;;;2215310;58;1310;-74
2022/09/27 15:50:29;;;;;;;;;;;;;;;;;;2213950;58;2162;-74
2022/09/27 15:53:05;;;;;;;;;;;;;;;;;;2213686;59;2086;-74
2022/09/27 15:55:44;;;;;;;;;;;;;;;;;;2214454;59;1793;-75
2022/09/27 15:58:21;;;;;;;;;;;;;;;;;;2215586;59;1660;-74
2022/09/27 16:00:55;;;;;;;;;;;;;;;;;;2211829;58;2455;-74
2022/09/27 16:03:28;;;;;;;;;;;;;;;;;;2216912;59;2211;-75
2022/09/27 16:06:04;;;;;;;;;;;;;;;;;;2215591;58;2180;-75
2022/09/27 16:08:37;;;;;;;;;;;;;;;;;;2213377;59;2479;-74
2022/09/27 16:11:15;;;;;;;;;;;;;;;;;;2209431;59;2685;-74
2022/09/27 16:13:49;;;;;;;;;;;;;;;;;;2213651;59;2513;-75
2022/09/27 16:16:23;;;;;;;;;;;;;;;;;;2211759;59;2176;-74
2022/09/27 16:18:56;;;;;;;;;;;;;;;;;;2213682;58;2302;-75
2022/09/27 16:21:31;;;;;;;;;;;;;;;;;;2212976;58;2486;-74
2022/09/27 16:24:05;;;;;;;;;;;;;;;;;;2213737;58;2434;-73
2022/09/27 16:26:41;;;;;;;;;;;;;;;;;;2215468;58;2257;-75
2022/09/27 16:29:15;;;;;;;;;;;;;;;;;;2214171;58;2391;-74
2022/09/27 16:31:48;;;;;;;;;;;;;;;;;;2212606;58;2408;-74
2022/09/27 16:34:21;;;;;;;;;;;;;;;;;;2213555;59;2378;-74
2022/09/27 16:36:54;;;;;;;;;;;;;;;;;;2214328;59;2058;-74
2022/09/27 16:39:27;;;;;;;;;;;;;;;;;;2214529;66;1063;-75
2022/09/27 16:42:06;;;;;;;;;;;;;;;;;;2215153;59;2374;-74
2022/09/27 16:44:39;;;;;;;;;;;;;;;;;;2214740;58;2468;-73
2022/09/27 16:47:12;;;;;;;;;;;;;;;;;;2214172;59;2285;-74
2022/09/27 16:52:35;;;;;;;;;;;;;;;;;;2214691;59;2506;-73
2022/09/27 16:55:08;;;;;;;;;;;;;;;;;;2215224;63;1773;-73
2022/09/27 16:57:44;;;;;;;;;;;;;;;;;;2215940;59;1620;-74
2022/09/27 17:00:18;;;;;;;;;;;;;;;;;;2216018;59;2712;-72
2022/09/27 17:02:53;;;;;;;;;;;;;;;;;;2215734;58;2580;-70
2022/09/27 17:05:26;;;;;;;;;;;;;;;;;;2217136;58;2348;-72
2022/09/27 17:08:00;;;;;;;;;;;;;;;;;;2214826;59;1721;-73
2022/09/27 17:10:34;;;;;;;;;;;;;;;;;;2216145;59;1943;-72
2022/09/27 17:13:10;;;;;;;;;;;;;;;;;;2213966;59;2629;-72
2022/09/27 17:15:43;;;;;;;;;;;;;;;;;;2215094;59;1700;-72
2022/09/27 17:18:16;;;;;;;;;;;;;;;;;;2214355;59;2014;-72
2022/09/27 17:20:51;;;;;;;;;;;;;;;;;;2217074;66;1118;-72
2022/09/27 17:23:24;;;;;;;;;;;;;;;;;;2216466;59;1370;-72
2022/09/27 17:26:02;;;;;;;;;;;;;;;;;;2211251;59;2608;-72
2022/09/27 17:28:38;;;;;;;;;;;;;;;;;;2215470;59;1694;-73
2022/09/27 17:31:14;;;;;;;;;;;;;;;;;;2214934;59;2568;-73
2022/09/27 17:33:50;;;;;;;;;;;;;;;;;;2211155;59;2367;-71
2022/09/27 17:36:24;;;;;;;;;;;;;;;;;;2215920;59;1258;-72
2022/09/27 17:38:57;;;;;;;;;;;;;;;;;;2214057;59;2547;-72
2022/09/27 17:41:32;;;;;;;;;;;;;;;;;;2215141;59;1566;-73
2022/09/27 17:44:08;;;;;;;;;;;;;;;;;;2214530;59;1097;-72
2022/09/27 17:46:41;;;;;;;;;;;;;;;;;;2216230;59;1281;-72
2022/09/27 17:52:12;;;;;;;;;;;;;;;;;;2204259;59;1925;-74
2022/09/27 17:54:45;;;;;;;;;;;;;;;;;;2212184;67;1148;-74
2022/09/27 17:57:18;;;;;;;;;;;;;;;;;;2212758;59;1322;-73
2022/09/27 17:59:56;;;;;;;;;;;;;;;;;;2211457;67;1265;-74
2022/09/27 18:02:29;;;;;;;;;;;;;;;;;;2212975;59;2129;-74
2022/09/27 18:05:04;;;;;;;;;;;;;;;;;;2212304;59;1204;-74
2022/09/27 18:07:37;;;;;;;;;;;;;;;;;;2206532;59;2184;-73
2022/09/27 18:10:10;;;;;;;;;;;;;;;;;;2210495;59;1530;-74
2022/09/27 18:12:43;;;;;;;;;;;;;;;;;;2210852;59;2485;-74
2022/09/27 18:15:20;;;;;;;;;;;;;;;;;;2214933;53;3715;-73
2022/09/27 18:17:55;;;;;;;;;;;;;;;;;;2210899;59;1866;-74
2022/09/27 18:20:28;;;;;;;;;;;;;;;;;;2212446;59;1947;-74
2022/09/27 18:23:01;;;;;;;;;;;;;;;;;;2213851;59;1568;-73
2022/09/27 18:25:39;;;;;;;;;;;;;;;;;;2213041;59;1533;-73
2022/09/27 18:28:12;;;;;;;;;;;;;;;;;;2214633;53;3846;-73
2022/09/27 18:30:48;;;;;;;;;;;;;;;;;;2215229;58;2521;-73
2022/09/27 18:33:21;;;;;;;;;;;;;;;;;;2208995;59;2631;-73
2022/09/27 18:35:54;;;;;;;;;;;;;;;;;;2217085;58;2814;-74
2022/09/27 18:38:27;;;;;;;;;;;;;;;;;;2216787;58;2110;-73
2022/09/27 18:41:05;;;;;;;;;;;;;;;;;;2217056;58;1480;-73
2022/09/27 18:43:39;;;;;;;;;;;;;;;;;;2217081;58;2454;-73
2022/09/27 18:46:17;;;;;;;;;;;;;;;;;;2216946;58;2402;-74
2022/09/27 18:48:50;;;;;;;;;;;;;;;;;;2216570;58;1661;-74
2022/09/27 18:54:52;;;;;;;;;;;;;;;;;;2207038;59;2577;-74
2022/09/27 18:57:25;;;;;;;;;;;;;;;;;;2215374;58;2089;-74
2022/09/27 19:00:02;;;;;;;;;;;;;;;;;;2217610;58;1183;-74
2022/09/27 19:02:39;;;;;;;;;;;;;;;;;;2217506;58;1092;-74
2022/09/27 19:05:12;;;;;;;;;;;;;;;;;;2212507;59;1890;-74
2022/09/27 19:23:48;;;;;;;;;;;;;;;;;;2256402;53;2047;-74
2022/09/27 19:26:22;;;;;;;;;;;;;;;;;;2215694;59;1547;-74
2022/09/27 19:28:57;;;;;;;;;;;;;;;;;;2217928;59;1158;-74
2022/09/27 19:31:30;;;;;;;;;;;;;;;;;;2219321;53;3666;-73
2022/09/27 19:34:04;;;;;;;;;;;;;;;;;;2215409;58;2618;-73
2022/09/27 19:36:37;;;;;;;;;;;;;;;;;;2215496;58;2347;-74
2022/09/27 19:39:13;;;;;;;;;;;;;;;;;;2217489;58;1317;-72
2022/09/27 19:41:46;;;;;;;;;;;;;;;;;;2219063;66;1233;-74
2022/09/27 19:44:19;;;;;;;;;;;;;;;;;;2221725;58;2502;-73
2022/09/27 19:46:52;;;;;;;;;;;;;;;;;;2221408;58;2027;-73
2022/09/27 19:49:26;;;;;;;;;;;;;;;;;;2220356;58;1821;-74
2022/09/27 19:51:59;;;;;;;;;;;;;;;;;;2221171;58;2016;-74
2022/09/27 19:54:35;;;;;;;;;;;;;;;;;;2221702;58;1803;-74
2022/09/27 19:57:08;;;;;;;;;;;;;;;;;;2221490;58;2246;-74
2022/09/27 19:59:42;;;;;;;;;;;;;;;;;;2221624;58;2177;-75
2022/09/27 20:02:15;;;;;;;;;;;;;;;;;;2221535;58;1650;-75
2022/09/27 20:04:50;;;;;;;;;;;;;;;;;;2220805;58;1644;-73
2022/09/27 20:07:23;;;;;;;;;;;;;;;;;;2221272;66;1021;-75
2022/09/27 20:09:59;;;;;;;;;;;;;;;;;;2221196;58;2308;-74
2022/09/27 20:12:32;;;;;;;;;;;;;;;;;;2216912;58;2168;-74
2022/09/27 20:15:05;;;;;;;;;;;;;;;;;;2221836;58;2106;-73
2022/09/27 20:17:38;;;;;;;;;;;;;;;;;;2221421;58;2192;-74
2022/09/27 20:20:11;;;;;;;;;;;;;;;;;;2221170;58;1648;-74
2022/09/27 20:22:44;;;;;;;;;;;;;;;;;;2221738;66;1219;-75
2022/09/27 20:25:21;;;;;;;;;;;;;;;;;;2222095;58;2027;-74
2022/09/27 20:27:54;;;;;;;;;;;;;;;;;;2221497;58;2722;-73
2022/09/27 20:30:28;;;;;;;;;;;;;;;;;;2220842;58;2682;-73
2022/09/27 20:35:53;;;;;;;;;;;;;;;;;;2219926;58;2245;-74
2022/09/27 20:38:26;;;;;;;;;;;;;;;;;;2220471;66;1012;-73
2022/09/27 20:41:02;;;;;;;;;;;;;;;;;;2221325;58;2346;-74
2022/09/27 20:43:35;;;;;;;;;;;;;;;;;;2221060;66;1047;-73
2022/09/27 20:46:10;;;;;;;;;;;;;;;;;;2221396;58;1313;-71
2022/09/27 20:48:43;;;;;;;;;;;;;;;;;;2219028;58;1668;-72
2022/09/27 20:51:16;;;;;;;;;;;;;;;;;;2220417;58;2170;-72
2022/09/27 20:53:50;;;;;;;;;;;;;;;;;;2217457;58;2167;-71
2022/09/27 20:56:28;;;;;;;;;;;;;;;;;;2221338;66;1095;-72
2022/09/27 20:59:02;;;;;;;;;;;;;;;;;;2219939;66;1204;-72
2022/09/27 21:01:35;;;;;;;;;;;;;;;;;;2219523;59;1241;-72
2022/09/27 21:04:08;;;;;;;;;;;;;;;;;;2220130;58;2379;-72
2022/09/27 21:06:42;;;;;;;;;;;;;;;;;;2219907;66;1044;-72
2022/09/27 21:09:17;;;;;;;;;;;;;;;;;;2218692;58;1221;-73
2022/09/27 21:11:53;;;;;;;;;;;;;;;;;;2218495;58;2352;-73
2022/09/27 21:14:26;;;;;;;;;;;;;;;;;;2220018;58;2136;-73
2022/09/27 21:16:59;;;;;;;;;;;;;;;;;;2219224;58;1208;-71
2022/09/27 21:19:33;;;;;;;;;;;;;;;;;;2219357;58;2387;-71
2022/09/27 21:22:07;;;;;;;;;;;;;;;;;;2221406;58;2264;-73
2022/09/27 21:24:40;;;;;;;;;;;;;;;;;;2220518;58;1721;-71
2022/09/27 21:27:16;;;;;;;;;;;;;;;;;;2221087;66;1124;-72
2022/09/27 21:29:49;;;;;;;;;;;;;;;;;;2220972;58;2249;-73
2022/09/27 21:32:22;;;;;;;;;;;;;;;;;;2219756;58;2725;-73
2022/09/27 21:34:56;;;;;;;;;;;;;;;;;;2220581;58;2377;-72
2022/09/27 21:37:29;;;;;;;;;;;;;;;;;;2220709;58;2599;-73
2022/09/27 21:40:03;;;;;;;;;;;;;;;;;;2219986;58;2259;-74
2022/09/27 21:42:39;;;;;;;;;;;;;;;;;;2216424;58;2407;-72
2022/09/27 21:45:13;;;;;;;;;;;;;;;;;;2220539;58;2296;-74
2022/09/27 21:47:46;;;;;;;;;;;;;;;;;;2221070;58;1265;-74
2022/09/27 21:50:19;;;;;;;;;;;;;;;;;;2221354;58;2118;-74
2022/09/27 21:52:53;;;;;;;;;;;;;;;;;;2219966;58;2239;-73
2022/09/27 21:55:27;;;;;;;;;;;;;;;;;;2221332;58;2125;-74
2022/09/27 21:58:03;;;;;;;;;;;;;;;;;;2221493;58;1318;-73
2022/09/27 22:00:36;;;;;;;;;;;;;;;;;;2219357;58;2949;-73
2022/09/27 22:03:09;;;;;;;;;;;;;;;;;;2220524;58;2913;-74
2022/09/27 22:05:45;;;;;;;;;;;;;;;;;;2222046;58;1018;-73
2022/09/27 22:08:18;;;;;;;;;;;;;;;;;;2221322;58;1245;-73
2022/09/27 22:10:52;;;;;;;;;;;;;;;;;;2220490;58;1729;-73
2022/09/27 22:13:27;;;;;;;;;;;;;;;;;;2220975;58;2341;-73
2022/09/27 22:16:03;;;;;;;;;;;;;;;;;;2221311;58;2133;-74
2022/09/27 22:18:37;;;;;;;;;;;;;;;;;;2221814;58;1452;-73
2022/09/27 22:21:11;;;;;;;;;;;;;;;;;;2221476;66;1225;-73
2022/09/27 22:23:44;;;;;;;;;;;;;;;;;;2221573;58;1077;-74
2022/09/27 22:26:18;;;;;;;;;;;;;;;;;;2220733;66;1254;-73
2022/09/27 22:28:54;;;;;;;;;;;;;;;;;;2221633;66;1148;-74
2022/09/27 22:31:28;;;;;;;;;;;;;;;;;;2220989;58;1647;-74
2022/09/27 22:34:02;;;;;;;;;;;;;;;;;;2221721;58;1933;-73
2022/09/27 22:36:36;;;;;;;;;;;;;;;;;;2222263;58;1134;-74
2022/09/27 22:39:09;;;;;;;;;;;;;;;;;;2221644;66;1158;-74
2022/09/27 22:41:42;;;;;;;;;;;;;;;;;;2222318;66;1253;-74
2022/09/27 22:44:18;;;;;;;;;;;;;;;;;;2221895;59;1177;-74
2022/09/27 22:46:51;;;;;;;;;;;;;;;;;;2220517;58;1179;-72
2022/09/27 22:49:25;;;;;;;;;;;;;;;;;;2221124;59;1166;-72
2022/09/27 22:51:58;;;;;;;;;;;;;;;;;;2220772;58;1646;-74
2022/09/27 22:54:31;;;;;;;;;;;;;;;;;;2222047;66;1921;-73
2022/09/27 22:57:04;;;;;;;;;;;;;;;;;;2220925;66;1150;-72
2022/09/27 22:59:40;;;;;;;;;;;;;;;;;;2221357;66;1021;-71
2022/09/27 23:02:13;;;;;;;;;;;;;;;;;;2220530;59;1389;-73
2022/09/27 23:04:47;;;;;;;;;;;;;;;;;;2221419;66;1063;-73
2022/09/27 23:07:20;;;;;;;;;;;;;;;;;;2220684;66;1230;-71
2022/09/27 23:09:53;;;;;;;;;;;;;;;;;;2221507;66;1139;-71
2022/09/27 23:12:26;;;;;;;;;;;;;;;;;;2221127;58;1940;-71
2022/09/27 23:15:02;;;;;;;;;;;;;;;;;;2220718;58;1105;-71
2022/09/27 23:17:35;;;;;;;;;;;;;;;;;;2221433;58;1158;-71
2022/09/27 23:20:09;;;;;;;;;;;;;;;;;;2220979;66;1242;-71